createdAt,value
2018-09-25T00:01:54.262Z,9.71
2018-09-25T00:04:28.128Z,9.76
2018-09-25T00:07:02.083Z,9.61
2018-09-25T00:09:35.814Z,9.54
2018-09-25T00:12:09.624Z,9.38
2018-09-25T00:14:43.543Z,9.41
2018-09-25T00:17:17.327Z,9.47
2018-09-25T00:19:51.233Z,9.18
2018-09-25T00:22:25.132Z,8.94
2018-09-25T00:24:58.973Z,8.75
2018-09-25T00:27:32.728Z,8.92
2018-09-25T00:30:06.542Z,9.13
2018-09-25T00:32:40.437Z,9.29
2018-09-25T00:35:14.103Z,9.50
2018-09-25T00:37:48.552Z,9.64
2018-09-25T00:40:23.033Z,9.58
2018-09-25T00:42:57.143Z,9.33
2018-09-25T00:45:31.053Z,9.27
2018-09-25T00:48:04.810Z,9.19
2018-09-25T00:50:38.522Z,9.03
2018-09-25T00:53:12.326Z,9.04
2018-09-25T00:55:46.162Z,8.98
2018-09-25T00:58:19.914Z,9.02
2018-09-25T01:00:53.885Z,9.12
2018-09-25T01:03:28.003Z,9.10
2018-09-25T01:06:01.794Z,9.06
2018-09-25T01:08:35.529Z,9.04
2018-09-25T01:11:09.221Z,8.86
2018-09-25T01:13:43.197Z,8.94
2018-09-25T01:16:16.857Z,8.94
2018-09-25T01:18:50.784Z,8.72
2018-09-25T01:21:24.652Z,8.77
2018-09-25T01:23:58.437Z,8.35
2018-09-25T01:26:32.361Z,8.02
2018-09-25T01:29:06.166Z,8.04
2018-09-25T01:31:39.928Z,7.89
2018-09-25T01:34:13.825Z,8.04
2018-09-25T01:36:47.737Z,8.27
2018-09-25T01:39:21.618Z,8.44
2018-09-25T01:41:55.333Z,8.71
2018-09-25T01:44:29.811Z,8.89
2018-09-25T01:47:04.214Z,8.95
2018-09-25T01:49:37.846Z,9.08
2018-09-25T01:52:11.678Z,9.00
2018-09-25T01:54:45.393Z,8.78
2018-09-25T01:57:19.297Z,8.74
2018-09-25T01:59:54.212Z,8.67
2018-09-25T02:02:28.072Z,8.52
2018-09-25T02:05:01.744Z,8.18
2018-09-25T02:07:35.719Z,7.81
2018-09-25T02:10:09.632Z,7.90
2018-09-25T02:12:43.581Z,8.16
2018-09-25T02:15:17.368Z,8.40
2018-09-25T02:17:51.199Z,8.54
2018-09-25T02:20:24.952Z,8.62
2018-09-25T02:22:58.812Z,8.62
2018-09-25T02:25:32.657Z,8.71
2018-09-25T02:28:06.527Z,8.63
2018-09-25T02:30:41.294Z,8.50
2018-09-25T02:33:15.012Z,8.49
2018-09-25T02:35:48.802Z,8.47
2018-09-25T02:38:22.538Z,8.38
2018-09-25T02:40:56.444Z,8.23
2018-09-25T02:43:30.288Z,7.81
2018-09-25T02:46:04.019Z,7.71
2018-09-25T02:48:37.991Z,7.88
2018-09-25T02:51:11.399Z,8.15
2018-09-25T02:53:45.178Z,8.21
2018-09-25T02:56:19.026Z,8.34
2018-09-25T02:58:52.794Z,8.31
2018-09-25T03:01:26.601Z,8.31
2018-09-25T03:04:00.856Z,8.22
2018-09-25T03:06:34.656Z,8.11
2018-09-25T03:09:08.499Z,8.09
2018-09-25T03:11:42.497Z,7.74
2018-09-25T03:14:16.061Z,7.66
2018-09-25T03:16:49.763Z,7.72
2018-09-25T03:19:24.369Z,7.64
2018-09-25T03:21:58.143Z,7.49
2018-09-25T03:24:32.001Z,7.72
2018-09-25T03:27:05.753Z,8.03
2018-09-25T03:29:39.556Z,8.22
2018-09-25T03:32:13.382Z,8.31
2018-09-25T03:34:47.087Z,8.35
2018-09-25T03:37:20.781Z,8.43
2018-09-25T03:39:54.467Z,8.25
2018-09-25T03:42:28.346Z,8.17
2018-09-25T03:45:02.226Z,8.17
2018-09-25T03:47:36.123Z,8.06
2018-09-25T03:50:10.096Z,7.70
2018-09-25T03:52:43.946Z,7.27
2018-09-25T03:55:17.744Z,7.42
2018-09-25T03:57:51.447Z,7.67
2018-09-25T04:00:25.294Z,7.88
2018-09-25T04:02:59.017Z,8.06
2018-09-25T04:05:32.991Z,8.16
2018-09-25T04:08:06.896Z,8.20
2018-09-25T04:10:40.815Z,8.09
2018-09-25T04:13:14.564Z,8.07
2018-09-25T04:15:48.322Z,7.86
2018-09-25T04:18:22.111Z,7.70
2018-09-25T04:20:56.096Z,7.56
2018-09-25T04:23:29.952Z,7.07
2018-09-25T04:26:04.164Z,7.02
2018-09-25T04:28:37.982Z,6.89
2018-09-25T04:31:12.591Z,7.13
2018-09-25T04:33:46.325Z,7.41
2018-09-25T04:36:20.052Z,7.73
2018-09-25T04:38:54.397Z,7.71
2018-09-25T04:41:28.137Z,7.86
2018-09-25T04:44:02.704Z,7.90
2018-09-25T04:46:36.323Z,8.02
2018-09-25T04:49:10.278Z,7.98
2018-09-25T04:51:44.021Z,7.84
2018-09-25T04:54:17.804Z,7.77
2018-09-25T04:56:51.660Z,7.68
2018-09-25T04:59:25.604Z,7.43
2018-09-25T05:01:59.399Z,6.82
2018-09-25T05:04:33.348Z,6.39
2018-09-25T05:07:07.149Z,6.48
2018-09-25T05:09:41.004Z,6.84
2018-09-25T05:12:14.907Z,7.28
2018-09-25T05:14:48.645Z,7.60
2018-09-25T05:17:22.424Z,7.62
2018-09-25T05:19:56.457Z,7.75
2018-09-25T05:22:30.227Z,7.84
2018-09-25T05:25:04.197Z,7.90
2018-09-25T05:27:37.883Z,7.73
2018-09-25T05:30:12.561Z,7.67
2018-09-25T05:32:47.026Z,7.70
2018-09-25T05:35:20.787Z,7.41
2018-09-25T05:37:54.618Z,7.45
2018-09-25T05:40:28.326Z,7.56
2018-09-25T05:43:02.118Z,7.69
2018-09-25T05:45:35.901Z,7.86
2018-09-25T05:48:09.731Z,7.93
2018-09-25T05:50:44.176Z,7.92
2018-09-25T05:53:18.078Z,7.79
2018-09-25T05:55:51.877Z,7.93
2018-09-25T05:58:25.552Z,7.90
2018-09-25T06:00:59.397Z,7.98
2018-09-25T06:03:33.077Z,7.90
2018-09-25T06:06:07.701Z,7.91
2018-09-25T06:08:41.527Z,7.79
2018-09-25T06:11:15.567Z,7.61
2018-09-25T06:13:49.446Z,7.28
2018-09-25T06:16:24.071Z,7.13
2018-09-25T06:18:58.042Z,7.14
2018-09-25T06:21:32.021Z,7.54
2018-09-25T06:24:05.813Z,7.88
2018-09-25T06:26:39.603Z,7.94
2018-09-25T06:29:13.358Z,7.99
2018-09-25T06:31:47.073Z,8.09
2018-09-25T06:34:20.805Z,8.21
2018-09-25T06:36:54.571Z,8.25
2018-09-25T06:39:28.401Z,8.20
2018-09-25T06:42:02.362Z,8.30
2018-09-25T06:44:36.359Z,8.12
2018-09-25T06:47:10.276Z,7.68
2018-09-25T06:49:44.089Z,7.39
2018-09-25T06:52:17.847Z,7.26
2018-09-25T06:54:51.756Z,7.62
2018-09-25T06:57:25.524Z,7.97
2018-09-25T06:59:59.381Z,8.29
2018-09-25T07:02:33.257Z,8.58
2018-09-25T07:05:07.191Z,8.94
2018-09-25T07:07:41.021Z,9.26
2018-09-25T07:10:14.843Z,9.61
2018-09-25T07:12:48.734Z,9.72
2018-09-25T07:15:22.341Z,9.95
2018-09-25T07:17:56.105Z,10.23
2018-09-25T07:20:29.821Z,10.39
2018-09-25T07:23:03.820Z,10.49
2018-09-25T07:25:37.717Z,10.60
2018-09-25T07:28:11.633Z,10.85
2018-09-25T07:30:45.478Z,10.93
2018-09-25T07:33:19.377Z,11.40
2018-09-25T07:35:53.138Z,12.14
2018-09-25T07:38:26.911Z,12.44
2018-09-25T07:41:00.781Z,12.48
2018-09-25T07:43:34.592Z,12.46
2018-09-25T07:46:08.356Z,12.73
2018-09-25T07:48:42.917Z,13.34
2018-09-25T07:51:16.787Z,13.68
2018-09-25T07:53:50.502Z,14.05
2018-09-25T07:56:24.818Z,13.87
2018-09-25T07:58:58.631Z,13.98
2018-09-25T08:01:32.526Z,13.86
2018-09-25T08:04:06.347Z,13.51
2018-09-25T08:06:40.142Z,13.53
2018-09-25T08:09:14.818Z,13.64
2018-09-25T08:11:48.486Z,13.53
2018-09-25T08:14:22.462Z,13.55
2018-09-25T08:16:58.097Z,13.78
2018-09-25T08:19:31.829Z,13.88
2018-09-25T08:22:05.871Z,13.72
2018-09-25T08:24:40.757Z,13.60
2018-09-25T08:27:14.415Z,13.95
2018-09-25T08:29:48.380Z,14.54
2018-09-25T08:32:22.052Z,15.14
2018-09-25T08:34:55.898Z,15.02
2018-09-25T08:37:30.122Z,15.18
2018-09-25T08:40:03.926Z,15.09
2018-09-25T08:42:38.420Z,15.73
2018-09-25T08:45:12.423Z,16.18
2018-09-25T08:47:46.081Z,16.42
2018-09-25T08:50:19.978Z,16.27
2018-09-25T08:52:53.592Z,16.42
2018-09-25T08:55:27.512Z,16.83
2018-09-25T08:58:01.396Z,16.98
2018-09-25T09:00:35.152Z,16.97
2018-09-25T09:03:09.550Z,16.58
2018-09-25T09:05:43.396Z,16.79
2018-09-25T09:08:17.272Z,16.80
2018-09-25T09:10:51.691Z,16.87
2018-09-25T09:13:25.565Z,16.72
2018-09-25T09:16:00.221Z,16.74
2018-09-25T09:18:34.235Z,17.04
2018-09-25T09:21:08.716Z,17.06
2018-09-25T09:23:42.537Z,17.21
2018-09-25T09:26:16.356Z,17.09
2018-09-25T09:28:50.196Z,16.88
2018-09-25T09:31:23.868Z,17.07
2018-09-25T09:33:57.621Z,16.79
2018-09-25T09:36:31.536Z,16.51
2018-09-25T09:39:05.762Z,17.03
2018-09-25T09:41:39.638Z,17.45
2018-09-25T09:44:13.337Z,17.76
2018-09-25T09:46:47.180Z,17.66
2018-09-25T09:49:21.017Z,17.96
2018-09-25T09:51:54.996Z,18.29
2018-09-25T09:54:28.782Z,18.61
2018-09-25T09:57:02.767Z,18.86
2018-09-25T09:59:36.482Z,18.77
2018-09-25T10:02:10.320Z,18.90
2018-09-25T10:04:45.096Z,19.35
2018-09-25T10:07:19.353Z,19.42
2018-09-25T10:09:53.146Z,19.55
2018-09-25T10:12:27.079Z,19.22
2018-09-25T10:15:00.985Z,18.68
2018-09-25T10:17:35.692Z,18.57
2018-09-25T10:20:09.599Z,18.94
2018-09-25T10:22:43.523Z,19.29
2018-09-25T10:25:17.325Z,19.28
2018-09-25T10:27:51.065Z,19.36
2018-09-25T10:30:25.130Z,19.58
2018-09-25T10:32:59.155Z,19.88
2018-09-25T10:35:32.970Z,19.49
2018-09-25T10:38:06.780Z,19.30
2018-09-25T10:40:40.595Z,18.90
2018-09-25T10:43:14.535Z,19.01
2018-09-25T10:45:48.514Z,19.44
2018-09-25T10:48:22.455Z,19.47
2018-09-25T10:50:56.362Z,19.69
2018-09-25T10:53:30.297Z,19.76
2018-09-25T10:56:04.088Z,19.57
2018-09-25T10:58:38.431Z,19.69
2018-09-25T11:01:12.457Z,19.33
2018-09-25T11:03:46.472Z,18.59
2018-09-25T11:06:20.252Z,18.09
2018-09-25T11:08:53.992Z,17.82
2018-09-25T11:11:28.360Z,17.64
2018-09-25T11:14:02.266Z,17.70
2018-09-25T11:16:35.961Z,17.39
2018-09-25T11:19:09.981Z,16.65
2018-09-25T11:21:43.872Z,16.59
2018-09-25T11:24:17.623Z,16.67
2018-09-25T11:26:51.302Z,16.57
2018-09-25T11:29:25.387Z,16.57
2018-09-25T11:31:59.245Z,16.55
2018-09-25T11:34:32.961Z,16.40
2018-09-25T11:37:06.846Z,16.36
2018-09-25T11:39:40.692Z,16.07
2018-09-25T11:42:14.539Z,15.80
2018-09-25T11:44:48.370Z,15.62
2018-09-25T11:47:22.254Z,15.67
2018-09-25T11:49:56.112Z,16.28
2018-09-25T11:52:29.827Z,16.73
2018-09-25T11:55:04.622Z,16.90
2018-09-25T11:57:38.475Z,16.70
2018-09-25T12:00:12.205Z,16.86
2018-09-25T12:02:45.945Z,16.81
2018-09-25T12:05:19.876Z,16.47
2018-09-25T12:07:53.731Z,16.68
2018-09-25T12:10:28.431Z,16.98
2018-09-25T12:13:02.221Z,17.25
2018-09-25T12:15:35.946Z,17.19
2018-09-25T12:18:09.882Z,16.63
2018-09-25T12:20:43.734Z,16.52
2018-09-25T12:23:17.520Z,16.47
2018-09-25T12:25:51.295Z,16.47
2018-09-25T12:28:25.256Z,16.14
2018-09-25T12:30:59.092Z,15.94
2018-09-25T12:33:33.058Z,15.92
2018-09-25T12:36:06.907Z,15.97
2018-09-25T12:38:40.664Z,16.07
2018-09-25T12:41:14.940Z,16.57
2018-09-25T12:43:48.732Z,16.40
2018-09-25T12:46:22.671Z,16.15
2018-09-25T12:48:56.453Z,15.97
2018-09-25T12:51:30.477Z,16.58
2018-09-25T12:54:04.941Z,16.98
2018-09-25T12:56:38.845Z,17.20
2018-09-25T12:59:12.798Z,17.26
2018-09-25T13:01:46.900Z,17.40
2018-09-25T13:04:20.789Z,17.47
2018-09-25T13:06:55.442Z,17.54
2018-09-25T13:09:29.333Z,17.45
2018-09-25T13:12:03.037Z,17.73
2018-09-25T13:14:36.791Z,17.71
2018-09-25T13:17:10.491Z,17.52
2018-09-25T13:19:44.202Z,17.08
2018-09-25T13:22:17.992Z,16.86
2018-09-25T13:24:51.742Z,16.78
2018-09-25T13:27:25.555Z,16.74
2018-09-25T13:29:59.454Z,16.64
2018-09-25T13:32:33.465Z,16.55
2018-09-25T13:35:07.932Z,16.67
2018-09-25T13:37:41.599Z,16.87
2018-09-25T13:40:15.520Z,16.72
2018-09-25T13:42:49.346Z,16.67
2018-09-25T13:45:23.040Z,16.72
2018-09-25T13:47:56.812Z,16.57
2018-09-25T13:50:30.490Z,16.54
2018-09-25T13:53:04.305Z,16.50
2018-09-25T13:55:38.081Z,16.49
2018-09-25T13:58:11.877Z,16.21
2018-09-25T14:00:45.555Z,15.90
2018-09-25T14:03:19.471Z,15.76
2018-09-25T14:05:53.340Z,15.61
2018-09-25T14:08:27.325Z,15.15
2018-09-25T14:11:01.251Z,15.00
2018-09-25T14:13:35.200Z,14.85
2018-09-25T14:16:09.210Z,14.88
2018-09-25T14:18:43.501Z,14.95
2018-09-25T14:21:17.209Z,15.13
2018-09-25T14:23:50.984Z,15.24
2018-09-25T14:26:25.523Z,15.25
2018-09-25T14:28:59.352Z,15.36
2018-09-25T14:31:33.116Z,15.29
2018-09-25T14:34:06.960Z,15.53
2018-09-25T14:36:41.396Z,15.80
2018-09-25T14:39:15.301Z,15.96
2018-09-25T14:41:49.495Z,15.64
2018-09-25T14:44:23.186Z,15.25
2018-09-25T14:46:58.157Z,14.98
2018-09-25T14:49:32.090Z,14.82
2018-09-25T14:52:06.365Z,14.65
2018-09-25T14:54:40.306Z,14.50
2018-09-25T14:57:14.167Z,14.38
2018-09-25T14:59:47.894Z,14.10
2018-09-25T15:02:21.931Z,13.92
2018-09-25T15:04:55.595Z,13.66
2018-09-25T15:07:29.835Z,13.65
2018-09-25T15:10:03.506Z,13.82
2018-09-25T15:12:37.210Z,14.13
2018-09-25T15:15:11.404Z,13.96
2018-09-25T15:17:45.277Z,13.84
2018-09-25T15:20:19.811Z,13.61
2018-09-25T15:22:53.697Z,13.60
2018-09-25T15:25:27.655Z,13.77
2018-09-25T15:28:01.527Z,13.67
2018-09-25T15:30:35.882Z,13.62
2018-09-25T15:33:09.752Z,13.66
2018-09-25T15:35:43.539Z,13.80
2018-09-25T15:38:17.386Z,14.12
2018-09-25T15:40:51.309Z,14.07
2018-09-25T15:43:25.858Z,14.03
2018-09-25T15:45:59.814Z,14.03
2018-09-25T15:48:33.451Z,14.15
2018-09-25T15:51:07.836Z,14.30
2018-09-25T15:53:42.421Z,14.23
2018-09-25T15:56:16.061Z,14.25
2018-09-25T15:58:49.799Z,14.60
2018-09-25T16:01:23.658Z,14.91
2018-09-25T16:03:57.504Z,14.99
2018-09-25T16:06:31.394Z,15.10
2018-09-25T16:09:05.187Z,15.27
2018-09-25T16:11:39.499Z,15.47
2018-09-25T16:14:13.557Z,15.60
2018-09-25T16:16:47.415Z,15.85
2018-09-25T16:19:21.120Z,15.93
2018-09-25T16:21:55.516Z,15.72
2018-09-25T16:24:29.479Z,15.41
2018-09-25T16:27:03.284Z,15.26
2018-09-25T16:29:37.392Z,15.05
2018-09-25T16:32:11.410Z,14.74
2018-09-25T16:34:44.955Z,14.47
2018-09-25T16:37:18.777Z,14.16
2018-09-25T16:39:52.521Z,13.91
2018-09-25T16:42:26.826Z,13.78
2018-09-25T16:45:00.643Z,13.71
2018-09-25T16:47:34.467Z,13.57
2018-09-25T16:50:08.526Z,13.42
2018-09-25T16:52:42.911Z,13.33
2018-09-25T16:55:16.866Z,13.12
2018-09-25T16:57:50.806Z,12.91
2018-09-25T17:00:25.054Z,12.71
2018-09-25T17:02:58.927Z,12.46
2018-09-25T17:05:32.699Z,12.19
2018-09-25T17:08:06.466Z,12.01
2018-09-25T17:10:40.177Z,11.79
2018-09-25T17:13:13.972Z,11.69
2018-09-25T17:15:48.225Z,11.95
2018-09-25T17:18:22.649Z,12.18
2018-09-25T17:20:56.464Z,12.20
2018-09-25T17:23:30.430Z,12.16
2018-09-25T17:26:04.211Z,12.37
2018-09-25T17:28:38.026Z,12.53
2018-09-25T17:31:12.100Z,12.59
2018-09-25T17:33:46.100Z,12.72
2018-09-25T17:36:19.819Z,12.38
2018-09-25T17:38:54.203Z,11.96
2018-09-25T17:41:28.029Z,11.63
2018-09-25T17:44:01.905Z,11.36
2018-09-25T17:46:35.711Z,10.94
2018-09-25T17:49:10.135Z,10.87
2018-09-25T17:51:44.020Z,11.27
2018-09-25T17:54:17.815Z,11.17
2018-09-25T17:56:51.546Z,11.08
2018-09-25T17:59:25.836Z,11.15
2018-09-25T18:01:59.548Z,11.44
2018-09-25T18:04:33.315Z,11.59
2018-09-25T18:07:07.167Z,11.63
2018-09-25T18:09:40.991Z,11.59
2018-09-25T18:12:14.746Z,11.37
2018-09-25T18:14:48.345Z,10.96
2018-09-25T18:17:21.962Z,10.79
2018-09-25T18:19:55.707Z,10.66
2018-09-25T18:22:29.651Z,10.35
2018-09-25T18:25:03.360Z,10.28
2018-09-25T18:27:37.742Z,10.19
2018-09-25T18:30:11.511Z,10.32
2018-09-25T18:32:45.419Z,10.79
2018-09-25T18:35:19.226Z,11.25
2018-09-25T18:37:53.175Z,11.29
2018-09-25T18:40:26.899Z,11.25
2018-09-25T18:43:00.749Z,11.28
2018-09-25T18:45:34.514Z,11.21
2018-09-25T18:48:08.512Z,11.16
2018-09-25T18:50:42.641Z,10.74
2018-09-25T18:53:16.384Z,10.29
2018-09-25T18:55:50.159Z,10.00
2018-09-25T18:58:23.976Z,9.88
2018-09-25T19:00:57.852Z,9.76
2018-09-25T19:03:31.761Z,10.03
2018-09-25T19:06:05.773Z,10.50
2018-09-25T19:08:39.580Z,10.87
2018-09-25T19:11:13.454Z,11.14
2018-09-25T19:13:47.212Z,11.26
2018-09-25T19:16:21.055Z,11.06
2018-09-25T19:18:56.550Z,10.98
2018-09-25T19:21:30.521Z,10.96
2018-09-25T19:24:04.554Z,10.59
2018-09-25T19:26:39.079Z,10.52
2018-09-25T19:29:12.864Z,10.34
2018-09-25T19:31:47.399Z,9.90
2018-09-25T19:34:21.232Z,9.70
2018-09-25T19:36:56.064Z,9.55
2018-09-25T19:39:29.779Z,9.53
2018-09-25T19:42:03.570Z,10.02
2018-09-25T19:44:37.456Z,10.46
2018-09-25T19:47:11.310Z,10.72
2018-09-25T19:49:45.014Z,10.67
2018-09-25T19:52:25.870Z,10.53
2018-09-25T19:54:59.584Z,10.48
2018-09-25T19:57:33.384Z,10.45
2018-09-25T20:00:07.068Z,10.44
2018-09-25T20:02:40.793Z,10.22
2018-09-25T20:05:14.575Z,9.73
2018-09-25T20:07:48.164Z,9.32
2018-09-25T20:10:22.063Z,9.04
2018-09-25T20:12:56.045Z,8.97
2018-09-25T20:15:29.851Z,9.29
2018-09-25T20:18:03.830Z,9.83
2018-09-25T20:20:37.645Z,10.22
2018-09-25T20:23:11.675Z,10.41
2018-09-25T20:25:45.521Z,10.49
2018-09-25T20:28:19.248Z,10.42
2018-09-25T20:30:53.773Z,10.42
2018-09-25T20:33:27.719Z,10.35
2018-09-25T20:36:01.698Z,10.26
2018-09-25T20:38:35.725Z,10.00
2018-09-25T20:41:09.709Z,9.53
2018-09-25T20:43:43.440Z,9.07
2018-09-25T20:46:17.903Z,8.90
2018-09-25T20:48:51.729Z,9.09
2018-09-25T20:51:26.040Z,9.35
2018-09-25T20:53:59.982Z,9.74
2018-09-25T20:56:34.019Z,10.10
2018-09-25T20:59:08.015Z,10.30
2018-09-25T21:01:42.045Z,10.21
2018-09-25T21:04:16.544Z,10.08
2018-09-25T21:06:50.434Z,10.03
2018-09-25T21:09:24.441Z,9.54
2018-09-25T21:11:58.888Z,9.29
2018-09-25T21:14:32.814Z,9.07
2018-09-25T21:17:06.573Z,8.91
2018-09-25T21:19:40.335Z,8.81
2018-09-25T21:22:14.419Z,8.91
2018-09-25T21:24:48.265Z,9.21
2018-09-25T21:27:22.099Z,9.63
2018-09-25T21:29:56.200Z,9.91
2018-09-25T21:32:30.060Z,10.09
2018-09-25T21:35:04.058Z,10.20
2018-09-25T21:37:38.337Z,10.06
2018-09-25T21:40:12.349Z,9.95
2018-09-25T21:42:46.242Z,9.93
2018-09-25T21:45:20.002Z,9.82
2018-09-25T21:47:54.063Z,9.67
2018-09-25T21:50:28.755Z,9.09
2018-09-25T21:53:02.714Z,8.51
2018-09-25T21:55:37.440Z,8.39
2018-09-25T21:58:11.759Z,8.45
2018-09-25T22:00:45.480Z,8.87
2018-09-25T22:03:19.349Z,9.29
2018-09-25T22:05:53.157Z,9.52
2018-09-25T22:08:26.869Z,9.63
2018-09-25T22:11:00.844Z,9.77
2018-09-25T22:13:34.699Z,9.61
2018-09-25T22:16:08.651Z,9.57
2018-09-25T22:18:42.373Z,9.43
2018-09-25T22:21:16.879Z,9.17
2018-09-25T22:23:50.680Z,8.73
2018-09-25T22:26:24.563Z,8.44
2018-09-25T22:28:58.639Z,8.18
2018-09-25T22:31:32.436Z,8.39
2018-09-25T22:34:06.359Z,8.73
2018-09-25T22:36:40.163Z,9.13
2018-09-25T22:39:15.783Z,9.37
2018-09-25T22:41:50.021Z,9.59
2018-09-25T22:44:23.919Z,9.58
2018-09-25T22:46:57.820Z,9.75
2018-09-25T22:49:31.671Z,9.56
2018-09-25T22:52:05.493Z,9.57
2018-09-25T22:54:40.119Z,9.24
2018-09-25T22:57:14.550Z,8.73
2018-09-25T22:59:48.303Z,8.36
2018-09-25T23:02:22.015Z,8.06
2018-09-25T23:04:56.512Z,7.89
2018-09-25T23:07:30.374Z,8.02
2018-09-25T23:10:04.208Z,8.30
2018-09-25T23:12:37.992Z,8.82
2018-09-25T23:15:11.939Z,9.06
2018-09-25T23:17:45.699Z,9.24
2018-09-25T23:20:19.634Z,9.35
2018-09-25T23:22:53.429Z,9.40
2018-09-25T23:25:27.265Z,9.26
2018-09-25T23:28:01.160Z,9.28
2018-09-25T23:30:35.059Z,9.03
2018-09-25T23:33:10.233Z,8.76
2018-09-25T23:35:43.861Z,8.41
2018-09-25T23:38:17.808Z,8.05
2018-09-25T23:42:56.549Z,7.99
2018-09-25T23:45:59.755Z,8.17
2018-09-25T23:48:39.482Z,8.66
2018-09-25T23:51:14.158Z,9.01
2018-09-25T23:53:47.168Z,9.27
2018-09-25T23:56:21.029Z,9.39
2018-09-25T23:58:54.072Z,9.37
